createdAt,value
2019-02-24T00:03:27.451Z,3.10
2019-02-24T00:06:10.522Z,3.10
2019-02-24T00:12:32.876Z,3.00
2019-02-24T00:15:29.186Z,3.00
2019-02-24T00:18:14.234Z,3.00
2019-02-24T00:24:29.425Z,3.00
2019-02-24T00:31:01.617Z,2.90
2019-02-24T00:33:44.892Z,2.90
2019-02-24T00:36:22.752Z,3.00
2019-02-24T00:39:03.036Z,2.90
2019-02-24T00:45:12.563Z,2.80
2019-02-24T00:51:26.747Z,2.70
2019-02-24T00:57:34.757Z,2.60
2019-02-24T01:00:12.673Z,2.60
2019-02-24T01:02:50.237Z,2.50
2019-02-24T01:05:27.844Z,2.60
2019-02-24T01:08:04.720Z,2.50
2019-02-24T01:10:43.855Z,2.50
2019-02-24T01:13:21.136Z,2.50
2019-02-24T01:16:07.024Z,2.40
2019-02-24T01:18:59.055Z,2.40
2019-02-24T01:21:37.581Z,2.40
2019-02-24T01:27:43.753Z,2.30
2019-02-24T01:34:03.459Z,2.20
2019-02-24T01:40:17.824Z,2.20
2019-02-24T01:43:03.560Z,2.20
2019-02-24T01:45:43.051Z,2.10
2019-02-24T01:48:26.258Z,2.10
2019-02-24T01:51:05.812Z,2.10
2019-02-24T01:53:44.943Z,2.00
2019-02-24T01:56:30.836Z,1.90
2019-02-24T02:02:26.357Z,1.80
2019-02-24T02:05:05.090Z,1.80
2019-02-24T02:11:11.676Z,1.90
2019-02-24T02:17:23.100Z,1.80
2019-02-24T02:30:12.821Z,1.70
2019-02-24T02:32:52.972Z,1.80
2019-02-24T02:35:37.846Z,1.80
2019-02-24T02:38:16.563Z,1.70
2019-02-24T02:40:52.815Z,1.60
2019-02-24T02:43:28.876Z,1.70
2019-02-24T02:49:48.580Z,1.60
2019-02-24T02:56:06.840Z,1.70
2019-02-24T02:58:53.628Z,1.50
2019-02-24T03:04:52.152Z,1.50
2019-02-24T03:10:47.889Z,1.30
2019-02-24T03:17:06.770Z,1.40
2019-02-24T03:19:43.849Z,1.30
2019-02-24T03:22:22.262Z,1.30
2019-02-24T03:25:00.909Z,1.20
2019-02-24T03:27:37.263Z,1.20
2019-02-24T03:30:13.269Z,1.10
2019-02-24T03:32:53.782Z,1.10
2019-02-24T03:35:38.218Z,1.10
2019-02-24T03:38:17.764Z,1.10
2019-02-24T03:41:02.824Z,1.10
2019-02-24T03:43:38.885Z,1.20
2019-02-24T03:46:15.768Z,1.20
2019-02-24T03:48:52.021Z,1.20
2019-02-24T03:51:29.924Z,1.30
2019-02-24T03:54:07.823Z,1.30
2019-02-24T03:56:46.542Z,1.30
2019-02-24T03:59:23.829Z,1.40
2019-02-24T04:01:59.476Z,1.20
2019-02-24T04:04:36.558Z,1.30
2019-02-24T04:07:12.619Z,1.20
2019-02-24T04:09:51.556Z,1.10
2019-02-24T04:12:28.827Z,1.00
2019-02-24T04:15:07.560Z,1.00
2019-02-24T04:17:49.748Z,1.00
2019-02-24T04:20:28.073Z,1.10
2019-02-24T04:23:10.303Z,1.00
2019-02-24T04:25:46.735Z,1.00
2019-02-24T04:28:24.831Z,1.00
2019-02-24T04:31:02.744Z,1.00
2019-02-24T04:33:38.997Z,1.10
2019-02-24T04:36:16.268Z,1.10
2019-02-24T04:38:52.286Z,1.10
2019-02-24T04:41:41.276Z,1.20
2019-02-24T04:44:16.946Z,1.10
2019-02-24T04:46:53.826Z,1.10
2019-02-24T04:49:29.303Z,1.10
2019-02-24T04:52:04.271Z,1.00
2019-02-24T04:54:48.961Z,1.00
2019-02-24T04:57:27.304Z,1.10
2019-02-24T05:00:05.785Z,1.10
2019-02-24T05:02:44.708Z,1.00
2019-02-24T05:05:24.660Z,1.10
2019-02-24T05:08:03.792Z,1.00
2019-02-24T05:14:17.146Z,0.90
2019-02-24T05:20:38.886Z,0.90
2019-02-24T05:27:00.837Z,0.80
2019-02-24T05:29:45.241Z,0.70
2019-02-24T05:35:43.312Z,0.80
2019-02-24T05:41:59.327Z,0.70
2019-02-24T05:48:20.446Z,0.60
2019-02-24T05:50:57.101Z,0.60
2019-02-24T05:53:35.205Z,0.60
2019-02-24T05:56:12.903Z,0.60
2019-02-24T05:58:51.011Z,0.70
2019-02-24T06:01:28.701Z,0.70
2019-02-24T06:04:05.987Z,0.70
2019-02-24T06:06:42.364Z,0.60
2019-02-24T06:09:18.920Z,0.70
2019-02-24T06:15:12.018Z,0.80
2019-02-24T06:17:48.888Z,0.70
2019-02-24T06:20:24.757Z,0.70
2019-02-24T06:23:01.314Z,0.70
2019-02-24T06:25:38.285Z,0.70
2019-02-24T06:31:31.161Z,0.70
2019-02-24T06:34:07.524Z,0.70
2019-02-24T06:36:42.600Z,0.80
2019-02-24T06:39:19.118Z,0.80
2019-02-24T06:41:57.216Z,0.90
2019-02-24T06:44:34.708Z,0.90
2019-02-24T06:47:11.179Z,0.80
2019-02-24T06:49:49.281Z,0.90
2019-02-24T06:52:38.039Z,1.10
2019-02-24T06:55:15.148Z,1.20
2019-02-24T06:57:51.194Z,1.20
2019-02-24T07:04:00.444Z,1.40
2019-02-24T07:06:38.127Z,1.40
2019-02-24T07:12:55.882Z,1.50
2019-02-24T07:19:11.186Z,1.60
2019-02-24T07:25:27.841Z,1.70
2019-02-24T07:28:11.856Z,1.90
2019-02-24T07:30:49.883Z,1.90
2019-02-24T07:33:27.894Z,1.90
2019-02-24T07:39:56.158Z,1.90
2019-02-24T07:42:31.631Z,2.00
2019-02-24T07:45:13.804Z,2.00
2019-02-24T07:47:50.472Z,2.10
2019-02-24T07:50:34.313Z,2.20
2019-02-24T07:53:26.770Z,2.20
2019-02-24T07:56:04.451Z,2.20
2019-02-24T08:02:19.938Z,2.50
2019-02-24T08:12:33.652Z,2.90
2019-02-24T08:18:32.595Z,2.90
2019-02-24T08:24:47.641Z,2.80
2019-02-24T08:27:30.689Z,2.90
2019-02-24T08:30:12.859Z,2.90
2019-02-24T08:33:00.603Z,3.00
2019-02-24T08:35:42.789Z,3.00
2019-02-24T08:42:22.474Z,3.10
2019-02-24T08:45:03.496Z,3.20
2019-02-24T08:51:24.050Z,3.70
2019-02-24T08:54:10.962Z,3.80
2019-02-24T08:56:55.562Z,3.80
2019-02-24T08:59:42.955Z,3.60
2019-02-24T09:02:24.134Z,3.40
2019-02-24T09:05:05.915Z,3.50
2019-02-24T09:07:53.030Z,3.30
2019-02-24T09:10:36.460Z,3.40
2019-02-24T09:13:15.997Z,3.50
2019-02-24T09:16:01.897Z,3.60
2019-02-24T09:18:47.440Z,3.70
2019-02-24T09:25:08.706Z,3.80
2019-02-24T09:27:50.902Z,3.80
2019-02-24T09:34:04.049Z,3.70
2019-02-24T09:40:23.143Z,3.50
2019-02-24T09:43:08.494Z,3.70
2019-02-24T09:45:46.494Z,3.90
2019-02-24T09:48:30.003Z,3.90
2019-02-24T09:51:09.074Z,4.10
2019-02-24T09:53:47.793Z,4.40
2019-02-24T09:56:30.507Z,4.50
2019-02-24T09:59:13.033Z,4.50
2019-02-24T10:01:57.060Z,4.50
2019-02-24T10:04:35.370Z,4.60
2019-02-24T10:07:12.044Z,4.70
2019-02-24T10:09:52.001Z,4.70
2019-02-24T10:12:36.014Z,4.80
2019-02-24T10:15:16.030Z,4.80
2019-02-24T10:17:55.123Z,4.90
2019-02-24T10:20:41.002Z,5.00
2019-02-24T10:23:23.026Z,5.10
2019-02-24T10:26:09.116Z,5.10
2019-02-24T10:29:01.501Z,5.10
2019-02-24T10:31:49.897Z,5.20
2019-02-24T10:38:15.118Z,5.30
2019-02-24T10:41:14.102Z,5.40
2019-02-24T10:44:16.998Z,5.30
2019-02-24T10:50:11.087Z,5.20
2019-02-24T10:52:52.061Z,5.10
2019-02-24T10:55:37.129Z,5.10
2019-02-24T10:58:22.145Z,5.20
2019-02-24T11:01:07.005Z,5.40
2019-02-24T11:03:41.527Z,5.30
2019-02-24T11:06:24.102Z,5.20
2019-02-24T11:09:13.241Z,5.20
2019-02-24T11:11:41.570Z,5.20
2019-02-24T11:14:25.465Z,5.20
2019-02-24T11:17:26.944Z,5.20
2019-02-24T11:20:31.964Z,5.10
2019-02-24T11:23:18.057Z,5.20
2019-02-24T11:26:00.881Z,5.20
2019-02-24T11:28:42.070Z,5.20
2019-02-24T11:31:38.144Z,5.20
2019-02-24T11:41:52.165Z,5.40
2019-02-24T11:44:39.507Z,5.40
2019-02-24T11:47:23.546Z,5.40
2019-02-24T11:53:39.148Z,5.50
2019-02-24T11:56:33.419Z,5.60
2019-02-24T11:59:13.565Z,5.60
2019-02-24T12:01:51.893Z,5.60
2019-02-24T12:04:43.919Z,5.70
2019-02-24T12:07:24.073Z,5.80
2019-02-24T12:10:07.089Z,5.90
2019-02-24T12:16:22.583Z,5.80
2019-02-24T12:19:07.170Z,5.90
2019-02-24T12:25:15.199Z,6.00
2019-02-24T12:32:03.591Z,6.30
2019-02-24T12:35:12.185Z,6.30
2019-02-24T12:37:56.415Z,6.30
2019-02-24T12:40:39.441Z,6.50
2019-02-24T12:46:44.194Z,6.40
2019-02-24T12:53:13.511Z,6.30
2019-02-24T12:56:05.746Z,6.40
2019-02-24T13:04:43.480Z,6.60
2019-02-24T13:07:45.142Z,6.70
2019-02-24T13:14:01.571Z,6.80
2019-02-24T13:16:51.760Z,6.90
2019-02-24T13:30:00.638Z,7.20
2019-02-24T13:36:47.004Z,7.10
2019-02-24T13:39:58.999Z,6.90
2019-02-24T13:42:34.713Z,6.90
2019-02-24T13:45:26.860Z,6.90
2019-02-24T13:52:00.983Z,6.60
2019-02-24T13:54:50.767Z,6.50
2019-02-24T13:58:00.089Z,6.50
2019-02-24T14:04:22.980Z,6.60
2019-02-24T14:07:11.385Z,6.50
2019-02-24T14:13:40.389Z,6.70
2019-02-24T14:20:15.908Z,6.70
2019-02-24T14:22:56.882Z,6.80
2019-02-24T14:25:46.865Z,6.80
2019-02-24T14:28:37.882Z,6.90
2019-02-24T14:31:40.992Z,7.00
2019-02-24T14:34:33.015Z,7.10
2019-02-24T14:37:21.957Z,7.00
2019-02-24T14:40:04.985Z,7.00
2019-02-24T14:43:01.388Z,7.00
2019-02-24T14:45:49.939Z,7.10
2019-02-24T14:48:40.039Z,7.20
2019-02-24T14:51:39.880Z,7.20
2019-02-24T15:00:21.407Z,7.20
2019-02-24T15:03:05.330Z,7.30
2019-02-24T15:05:55.927Z,7.50
2019-02-24T15:08:46.731Z,7.50
2019-02-24T15:11:45.931Z,7.50
2019-02-24T15:14:26.699Z,7.40
2019-02-24T15:20:44.392Z,7.30
2019-02-24T15:26:58.396Z,7.40
2019-02-24T15:29:53.020Z,7.30
2019-02-24T15:32:51.519Z,7.40
2019-02-24T15:35:45.669Z,7.60
2019-02-24T15:38:37.914Z,7.80
2019-02-24T15:44:52.910Z,8.00
2019-02-24T15:51:27.139Z,7.90
2019-02-24T15:54:10.993Z,7.70
2019-02-24T15:57:12.020Z,7.40
2019-02-24T16:00:38.579Z,7.30
2019-02-24T16:06:57.529Z,7.30
2019-02-24T16:09:37.592Z,7.20
2019-02-24T16:12:20.128Z,7.20
2019-02-24T16:14:59.537Z,7.20
2019-02-24T16:17:40.008Z,7.10
2019-02-24T16:20:42.130Z,7.10
2019-02-24T16:23:31.529Z,7.00
2019-02-24T16:26:31.046Z,7.00
2019-02-24T16:29:15.545Z,7.00
2019-02-24T16:32:02.636Z,6.90
2019-02-24T16:34:45.841Z,7.00
2019-02-24T16:37:28.251Z,7.00
2019-02-24T16:40:11.066Z,7.00
2019-02-24T16:42:53.272Z,7.00
2019-02-24T16:45:32.192Z,6.90
2019-02-24T16:48:16.031Z,6.80
2019-02-24T16:51:02.928Z,6.70
2019-02-24T16:53:43.612Z,6.60
2019-02-24T16:56:24.497Z,6.70
2019-02-24T16:59:03.212Z,6.60
2019-02-24T17:01:45.206Z,6.60
2019-02-24T17:04:36.230Z,6.60
2019-02-24T17:07:22.821Z,6.60
2019-02-24T17:10:13.122Z,6.50
2019-02-24T17:16:33.413Z,6.50
2019-02-24T17:19:18.285Z,6.40
2019-02-24T17:32:07.676Z,6.40
2019-02-24T17:34:53.189Z,6.40
2019-02-24T17:41:40.333Z,6.40
2019-02-24T17:44:22.536Z,6.30
2019-02-24T17:50:37.111Z,6.30
2019-02-24T17:53:24.230Z,6.20
2019-02-24T17:59:43.332Z,6.20
2019-02-24T18:02:26.742Z,6.10
2019-02-24T18:08:46.233Z,6.10
2019-02-24T18:11:31.840Z,6.00
2019-02-24T18:14:13.830Z,6.00
2019-02-24T18:16:57.349Z,5.90
2019-02-24T18:19:48.560Z,5.90
2019-02-24T18:22:31.920Z,6.00
2019-02-24T18:25:13.386Z,5.90
2019-02-24T18:27:59.794Z,5.80
2019-02-24T18:30:38.391Z,5.80
2019-02-24T18:33:24.690Z,5.70
2019-02-24T18:36:15.293Z,5.70
2019-02-24T18:39:10.807Z,5.60
2019-02-24T18:45:43.924Z,5.60
2019-02-24T18:48:31.555Z,5.60
2019-02-24T18:54:49.420Z,5.80
2019-02-24T18:57:25.317Z,5.80
2019-02-24T19:00:05.864Z,5.80
2019-02-24T19:02:42.849Z,5.80
2019-02-24T19:08:31.468Z,5.90
2019-02-24T19:11:10.591Z,5.70
2019-02-24T19:24:21.329Z,5.70
2019-02-24T19:27:00.253Z,5.60
2019-02-24T19:29:40.426Z,5.60
2019-02-24T19:32:18.312Z,5.50
2019-02-24T19:35:02.377Z,5.50
2019-02-24T19:37:43.526Z,5.50
2019-02-24T19:40:27.859Z,5.60
2019-02-24T19:43:09.849Z,5.50
2019-02-24T19:45:49.524Z,5.50
2019-02-24T19:48:29.270Z,5.60
2019-02-24T19:51:05.521Z,5.60
2019-02-24T19:53:43.424Z,5.50
2019-02-24T19:56:27.476Z,5.60
2019-02-24T19:59:05.373Z,5.60
2019-02-24T20:01:49.619Z,5.70
2019-02-24T20:04:27.320Z,5.60
2019-02-24T20:07:05.875Z,5.60
2019-02-24T20:09:44.841Z,5.50
2019-02-24T20:12:22.249Z,5.60
2019-02-24T20:15:09.156Z,5.60
2019-02-24T20:17:47.469Z,5.60
2019-02-24T20:20:27.415Z,5.60
2019-02-24T20:23:08.389Z,5.60
2019-02-24T20:25:58.786Z,5.60
2019-02-24T20:28:36.705Z,5.60
2019-02-24T20:38:18.737Z,5.50
2019-02-24T20:40:57.852Z,5.40
2019-02-24T20:47:07.852Z,5.40
2019-02-24T20:49:45.848Z,5.50
2019-02-24T20:52:32.742Z,5.40
2019-02-24T20:55:11.667Z,5.30
2019-02-24T20:57:52.643Z,5.30
2019-02-24T21:00:49.884Z,5.20
2019-02-24T21:03:27.487Z,5.10
2019-02-24T21:06:07.437Z,5.10
2019-02-24T21:08:50.663Z,5.20
2019-02-24T21:11:36.756Z,5.20
2019-02-24T21:14:19.381Z,5.20
2019-02-24T21:20:47.243Z,5.20
2019-02-24T21:23:40.733Z,5.20
2019-02-24T21:29:35.645Z,5.20
2019-02-24T21:32:20.341Z,5.10
2019-02-24T21:34:57.382Z,5.10
2019-02-24T21:37:35.488Z,5.10
2019-02-24T21:40:12.382Z,5.10
2019-02-24T21:42:55.792Z,5.20
2019-02-24T21:45:41.604Z,5.10
2019-02-24T21:48:22.449Z,5.00
2019-02-24T21:51:03.224Z,5.00
2019-02-24T21:53:44.333Z,5.00
2019-02-24T21:56:37.458Z,4.90
2019-02-24T21:59:17.633Z,4.80
2019-02-24T22:01:55.503Z,4.80
2019-02-24T22:04:35.899Z,4.70
2019-02-24T22:07:18.475Z,4.70
2019-02-24T22:09:58.215Z,4.70
2019-02-24T22:12:40.588Z,4.70
2019-02-24T22:15:20.368Z,4.70
2019-02-24T22:18:03.432Z,4.60
2019-02-24T22:20:39.447Z,4.50
2019-02-24T22:23:18.891Z,4.50
2019-02-24T22:25:57.500Z,4.50
2019-02-24T22:28:43.911Z,4.70
2019-02-24T22:31:25.179Z,4.70
2019-02-24T22:34:03.499Z,4.70
2019-02-24T22:36:46.102Z,4.60
2019-02-24T22:39:27.283Z,4.60
2019-02-24T22:42:07.439Z,4.70
2019-02-24T22:44:48.618Z,4.60
2019-02-24T22:47:25.487Z,4.70
2019-02-24T22:50:02.160Z,4.60
2019-02-24T22:52:41.283Z,4.60
2019-02-24T22:55:20.626Z,4.50
2019-02-24T22:58:03.902Z,4.40
2019-02-24T23:01:03.905Z,4.40
2019-02-24T23:03:47.503Z,4.30
2019-02-24T23:06:27.657Z,4.30
2019-02-24T23:09:18.472Z,4.40
2019-02-24T23:11:58.613Z,4.40
2019-02-24T23:14:39.914Z,4.30
2019-02-24T23:17:15.914Z,4.40
2019-02-24T23:20:01.331Z,4.30
2019-02-24T23:22:42.500Z,4.20
2019-02-24T23:25:20.212Z,4.20
2019-02-24T23:27:57.691Z,4.20
2019-02-24T23:30:37.434Z,4.10
2019-02-24T23:33:14.916Z,4.10
2019-02-24T23:35:52.420Z,4.10
2019-02-24T23:38:29.704Z,4.10
2019-02-24T23:41:12.318Z,4.10
2019-02-24T23:43:51.445Z,4.00
2019-02-24T23:46:27.306Z,4.00
2019-02-24T23:49:06.914Z,4.10
2019-02-24T23:51:49.666Z,4.20
2019-02-24T23:54:31.868Z,4.20
2019-02-24T23:57:13.858Z,4.10
2019-02-24T23:59:51.759Z,4.10
